Ambrose, GA

6:14 PM EDT on March 28, 2015 (GMT -0400)
Baymeadows Lake | | Change Station
CLOSE
Current Station
Personal Weather Station
Location: Douglas, GA
Elevation: 256 ft
Nearby Weather Stations

Elev 256 ft 31.45 °N, 82.91 °W | Updated 55 seconds ago

Clear
Clear
54.9 °F
Feels Like 54.9 °F
N
5.6
Wind Variable Wind from WNW
Gusts 11.9 mph

Today
High -- | Low -- °F
--% Chance of Precip.
Yesterday
High -- | Low -- °F
Precip. -- in
7:26 AM 7:48 PM
Waxing Gibbous, 66% visible
Pressure 30.14 in
Visibility 10.0 miles
Clouds Clear
Dew Point 34 °F
Humidity 45%
Rainfall 0.00 in
Snow Depth Not available.
UV 2 out of 12
Pollen 9.80 out of 12
Air Quality Not available.
Flu Activity Not available.
METAR KDQH 282155Z AUTO 32010KT 10SM CLR 15/M03 A3014 RMK AO2

More Conditions Fewer Conditions

Pressure 30.14 in
Visibility 10.0 miles
Clouds Clear
Dew Point 34 °F
Humidity 45%
Rainfall 0.00 in
Snow Depth Not available.
UV 2 out of 12
Pollen 9.80 out of 12
Air Quality Not available.
Flu Activity Not available.
METAR KDQH 282155Z AUTO 32010KT 10SM CLR 15/M03 A3014 RMK AO2

More Conditions Fewer Conditions

10-Day Weather Forecast

Almanac

Astronomy

Mar. 28, 2015 Rise Set
Actual Time
Civil Twilight
Nautical Twilight
Astronomical Twilight
Moon
Length of Visible Light
Length of Day
Tomorrow will be .
, % of the Moon is Illuminated

Today's Extremes

State Highs State Lows

Community

WunderPhotos

Upload Photos

1,809,099 photos uploaded!

WunderBlogs® & News

Nearby

Air Quality

  Air Quality AQ Index Pollutant
Not available.

Snow Depth

Station Depth Elevation

Earthquake Activity

City Distance Mag. Time & Date
Minimum magnitude displayed is 2.5.

Coastal Water Temperatures

Place Temperature

Stations

Nearby Weather Stations

Station Location Temp. Windchill Dew Point Humidity Wind Precip. Elev Updated Type